createdAt,value
2023-04-24T08:10:35.079Z,100.00
2023-04-24T08:12:38.702Z,100.00
2023-04-24T08:14:41.352Z,100.00
2023-04-24T08:16:44.448Z,100.00
2023-04-24T08:18:47.307Z,100.00
2023-04-24T08:20:49.611Z,100.00
2023-04-24T08:22:51.955Z,100.00
2023-04-24T08:24:55.064Z,100.00
2023-04-24T08:26:58.967Z,100.00
2023-04-24T08:29:01.502Z,100.00
2023-04-24T08:31:04.323Z,100.00
2023-04-24T08:33:06.679Z,100.00
2023-04-24T08:35:10.396Z,100.00
2023-04-24T08:37:13.308Z,100.00
2023-04-24T08:39:16.056Z,100.00
2023-04-24T08:41:19.937Z,100.00
2023-04-24T08:43:24.122Z,100.00
2023-04-24T08:45:27.135Z,100.00
2023-04-24T08:47:30.188Z,100.00
2023-04-24T08:49:33.205Z,100.00
2023-04-24T08:51:38.777Z,100.00
2023-04-24T08:53:41.818Z,100.00
2023-04-24T08:55:47.881Z,100.00
2023-04-24T08:57:53.289Z,100.00
2023-04-24T08:59:55.898Z,100.00
2023-04-24T09:01:59.150Z,100.00
2023-04-24T09:04:04.849Z,100.00
2023-04-24T09:06:10.440Z,100.00
2023-04-24T09:08:14.825Z,100.00
2023-04-24T09:10:17.143Z,100.00
2023-04-24T09:12:20.543Z,100.00
2023-04-24T09:14:24.754Z,100.00
2023-04-24T09:16:27.812Z,100.00
2023-04-24T09:18:30.185Z,100.00
2023-04-24T09:20:34.151Z,100.00
2023-04-24T09:22:37.188Z,100.00
2023-04-24T09:24:39.832Z,100.00
2023-04-24T09:26:43.262Z,100.00
2023-04-24T09:28:47.135Z,100.00
2023-04-24T09:31:03.888Z,100.00
2023-04-24T09:33:16.795Z,99.89
2023-04-24T09:35:19.372Z,98.79
2023-04-24T09:37:31.426Z,97.91
2023-04-24T09:39:33.972Z,100.00
2023-04-24T09:41:36.785Z,100.00
2023-04-24T09:43:39.062Z,100.00
2023-04-24T09:45:41.881Z,100.00
2023-04-24T09:47:44.469Z,100.00
2023-04-24T09:49:47.382Z,96.97
2023-04-24T09:51:49.972Z,93.22
2023-04-24T09:53:53.863Z,90.38
2023-04-24T09:56:03.345Z,88.86
2023-04-24T09:58:06.455Z,88.71
2023-04-24T10:00:09.374Z,88.20
2023-04-24T10:02:20.916Z,82.56
2023-04-24T10:04:25.532Z,85.83
2023-04-24T10:06:34.115Z,88.46
2023-04-24T10:08:37.726Z,88.49
2023-04-24T10:10:45.633Z,89.60
2023-04-24T10:12:48.433Z,91.12
2023-04-24T10:14:51.482Z,88.25
2023-04-24T10:16:56.168Z,87.01
2023-04-24T10:19:01.051Z,87.04
2023-04-24T10:21:03.880Z,90.91
2023-04-24T10:23:06.921Z,92.26
2023-04-24T10:25:11.177Z,90.31
2023-04-24T10:27:16.421Z,90.87
2023-04-24T10:29:20.364Z,87.52
2023-04-24T10:31:23.296Z,85.97
2023-04-24T10:33:27.130Z,85.48
2023-04-24T10:35:38.681Z,82.57
2023-04-24T10:37:46.088Z,78.25
2023-04-24T10:39:49.788Z,76.09
2023-04-24T10:41:52.563Z,77.17
2023-04-24T10:44:14.435Z,75.76
2023-04-24T10:46:22.920Z,75.88
2023-04-24T10:48:28.294Z,76.25
2023-04-24T10:50:44.011Z,76.35
2023-04-24T10:52:52.353Z,73.74
2023-04-24T10:54:59.022Z,71.98
2023-04-24T10:57:23.482Z,69.65
2023-04-24T10:59:28.674Z,71.41
2023-04-24T11:01:33.914Z,74.73
2023-04-24T11:03:37.961Z,79.04
2023-04-24T11:05:52.808Z,81.15
2023-04-24T11:08:14.760Z,79.64
2023-04-24T11:10:27.900Z,80.48
2023-04-24T11:12:30.225Z,77.45
2023-04-24T11:14:59.352Z,75.01
2023-04-24T11:17:02.443Z,71.43
2023-04-24T11:19:20.140Z,74.43
2023-04-24T11:21:23.647Z,74.59
2023-04-24T11:23:27.086Z,73.90
2023-04-24T11:25:31.902Z,72.37
2023-04-24T11:27:41.735Z,75.16
2023-04-24T11:29:56.636Z,75.98
2023-04-24T11:32:20.526Z,73.00
2023-04-24T11:34:24.368Z,70.78
2023-04-24T11:36:27.465Z,72.75
2023-04-24T11:38:29.896Z,73.09
2023-04-24T11:40:32.430Z,71.56
2023-04-24T11:42:43.491Z,71.98
2023-04-24T11:44:48.708Z,73.50
2023-04-24T11:46:51.327Z,72.69
2023-04-24T11:48:54.302Z,70.33
2023-04-24T11:50:56.842Z,68.94
2023-04-24T11:53:01.408Z,67.56
2023-04-24T11:55:04.792Z,66.41
2023-04-24T11:57:07.721Z,65.16
2023-04-24T11:59:10.313Z,64.67
2023-04-24T12:01:12.814Z,64.67
2023-04-24T12:03:15.682Z,62.72
2023-04-24T12:05:27.153Z,62.73
2023-04-24T12:07:29.714Z,66.78
2023-04-24T12:09:56.214Z,67.78
2023-04-24T12:11:58.534Z,73.03
2023-04-24T12:14:11.699Z,76.15
2023-04-24T12:16:14.489Z,76.58
2023-04-24T12:18:18.164Z,66.44
2023-04-24T12:20:29.494Z,59.73
2023-04-24T12:22:51.846Z,62.12
2023-04-24T12:25:04.422Z,67.13
2023-04-24T12:27:06.864Z,74.25
2023-04-24T12:29:09.709Z,77.43
2023-04-24T12:31:12.158Z,85.17
2023-04-24T12:33:19.524Z,90.06
2023-04-24T12:35:28.358Z,91.47
2023-04-24T12:37:35.101Z,89.46
2023-04-24T12:39:37.373Z,82.54
2023-04-24T12:41:59.440Z,70.69
2023-04-24T12:44:01.761Z,67.76
2023-04-24T12:46:05.082Z,72.18
2023-04-24T12:48:07.736Z,77.64
2023-04-24T12:50:12.347Z,86.19
2023-04-24T12:52:14.759Z,91.60
2023-04-24T12:54:17.568Z,93.65
2023-04-24T12:56:19.862Z,96.94
2023-04-24T12:58:22.387Z,98.56
2023-04-24T13:00:24.973Z,100.00
2023-04-24T13:02:33.428Z,99.99
2023-04-24T13:04:35.863Z,100.00
2023-04-24T13:06:38.664Z,100.00
2023-04-24T13:08:41.062Z,100.00
2023-04-24T13:10:43.707Z,100.00
2023-04-24T13:12:47.232Z,100.00
2023-04-24T13:14:49.758Z,100.00
2023-04-24T13:16:53.013Z,100.00
2023-04-24T13:18:55.941Z,100.00
2023-04-24T13:20:58.250Z,100.00
2023-04-24T13:23:01.073Z,100.00
2023-04-24T13:25:04.012Z,100.00
2023-04-24T13:27:06.528Z,100.00
2023-04-24T13:29:08.849Z,100.00
2023-04-24T13:31:11.449Z,100.00
2023-04-24T13:33:13.819Z,100.00
2023-04-24T13:35:16.238Z,100.00
2023-04-24T13:37:18.948Z,100.00
2023-04-24T13:39:22.291Z,100.00
2023-04-24T13:41:24.528Z,100.00
2023-04-24T13:43:27.137Z,100.00
2023-04-24T13:45:29.498Z,100.00
2023-04-24T13:47:31.863Z,100.00
2023-04-24T13:49:34.456Z,100.00
2023-04-24T13:51:36.816Z,100.00
2023-04-24T13:53:39.778Z,100.00
2023-04-24T13:55:42.691Z,100.00
2023-04-24T13:57:45.043Z,100.00
2023-04-24T13:59:47.429Z,100.00
2023-04-24T14:01:50.283Z,100.00
2023-04-24T14:03:53.841Z,100.00
2023-04-24T14:05:56.345Z,100.00
2023-04-24T14:08:44.737Z,100.00
2023-04-24T14:10:47.492Z,100.00
2023-04-24T14:12:49.864Z,100.00
2023-04-24T14:14:52.280Z,100.00
2023-04-24T14:16:54.841Z,100.00
2023-04-24T14:18:57.241Z,100.00
2023-04-24T14:21:00.292Z,100.00
2023-04-24T14:23:03.008Z,100.00
2023-04-24T14:25:07.282Z,100.00
2023-04-24T14:27:09.916Z,100.00
2023-04-24T14:29:15.046Z,100.00
2023-04-24T14:31:17.964Z,100.00
2023-04-24T14:33:20.599Z,100.00
2023-04-24T14:35:23.232Z,100.00
2023-04-24T14:37:25.510Z,100.00
2023-04-24T14:39:27.834Z,100.00
2023-04-24T14:41:30.567Z,100.00
2023-04-24T14:43:33.715Z,100.00
2023-04-24T14:45:37.523Z,100.00
2023-04-24T14:47:40.206Z,100.00
2023-04-24T14:49:42.551Z,100.00
2023-04-24T14:51:44.938Z,100.00
2023-04-24T14:53:48.719Z,100.00
2023-04-24T14:55:51.269Z,100.00
2023-04-24T14:57:54.170Z,100.00
2023-04-24T14:59:56.867Z,100.00
2023-04-24T15:02:14.655Z,100.00
2023-04-24T15:04:18.375Z,100.00
2023-04-24T15:06:21.562Z,100.00
2023-04-24T15:08:23.896Z,100.00
2023-04-24T15:10:26.693Z,100.00
2023-04-24T15:12:29.856Z,100.00
2023-04-24T15:14:32.396Z,100.00
2023-04-24T15:16:34.770Z,100.00
2023-04-24T15:18:37.513Z,100.00
2023-04-24T15:20:40.225Z,100.00
2023-04-24T15:22:42.583Z,100.00
2023-04-24T15:24:45.168Z,100.00
2023-04-24T15:26:47.546Z,100.00
2023-04-24T15:28:50.133Z,100.00
2023-04-24T15:30:52.820Z,100.00
2023-04-24T15:32:55.366Z,100.00
2023-04-24T15:35:07.853Z,100.00
2023-04-24T15:37:12.610Z,100.00
2023-04-24T15:39:15.005Z,100.00
2023-04-24T15:41:17.467Z,100.00
2023-04-24T15:43:20.277Z,100.00
2023-04-24T15:45:23.481Z,100.00
2023-04-24T15:47:26.593Z,100.00
2023-04-24T15:49:29.722Z,100.00
2023-04-24T15:51:32.145Z,100.00
2023-04-24T15:53:34.518Z,100.00
2023-04-24T15:55:37.712Z,100.00
2023-04-24T15:57:40.454Z,100.00
2023-04-24T15:59:43.339Z,100.00
2023-04-24T16:01:46.162Z,100.00
2023-04-24T16:03:49.128Z,100.00
2023-04-24T16:05:51.584Z,100.00
2023-04-24T16:07:53.973Z,100.00
2023-04-24T16:09:57.106Z,100.00
2023-04-24T16:11:59.601Z,100.00
2023-04-24T16:14:03.108Z,100.00
2023-04-24T16:16:06.705Z,100.00
2023-04-24T16:18:09.807Z,100.00
2023-04-24T16:20:13.321Z,100.00
2023-04-24T16:22:16.252Z,100.00
2023-04-24T16:24:18.593Z,100.00
2023-04-24T16:26:21.114Z,100.00
2023-04-24T16:28:24.142Z,100.00
2023-04-24T16:30:26.856Z,100.00
2023-04-24T16:32:29.470Z,100.00
2023-04-24T16:34:32.523Z,100.00
2023-04-24T16:36:36.579Z,100.00
2023-04-24T16:38:39.783Z,100.00
2023-04-24T16:40:43.361Z,100.00
2023-04-24T16:42:46.025Z,100.00
2023-04-24T16:44:48.576Z,100.00
2023-04-24T16:46:51.938Z,100.00
2023-04-24T16:48:54.976Z,100.00
2023-04-24T16:50:57.710Z,100.00
2023-04-24T16:53:01.473Z,100.00
2023-04-24T16:55:04.167Z,100.00
2023-04-24T16:57:08.034Z,100.00
2023-04-24T16:59:11.646Z,100.00
2023-04-24T17:01:14.415Z,100.00
2023-04-24T17:03:16.798Z,100.00
2023-04-24T17:05:21.408Z,100.00
2023-04-24T17:07:23.944Z,100.00
2023-04-24T17:09:26.661Z,100.00
2023-04-24T17:11:31.202Z,100.00
2023-04-24T17:13:33.895Z,100.00
2023-04-24T17:15:36.469Z,100.00
2023-04-24T17:17:39.163Z,100.00
2023-04-24T17:19:42.019Z,100.00
2023-04-24T17:21:45.895Z,100.00
2023-04-24T17:23:49.435Z,100.00
2023-04-24T17:25:54.179Z,100.00
2023-04-24T17:27:56.942Z,100.00
2023-04-24T17:30:00.127Z,100.00
2023-04-24T17:32:03.702Z,100.00
2023-04-24T17:34:08.372Z,100.00
2023-04-24T17:36:11.485Z,100.00
2023-04-24T17:38:14.480Z,100.00
2023-04-24T17:40:17.915Z,100.00
2023-04-24T17:42:21.120Z,100.00
2023-04-24T17:44:23.681Z,100.00
2023-04-24T17:46:27.130Z,100.00
2023-04-24T17:48:30.623Z,100.00
2023-04-24T17:50:33.671Z,100.00
2023-04-24T17:52:37.145Z,100.00
2023-04-24T17:54:41.089Z,100.00
2023-04-24T17:56:44.188Z,100.00
2023-04-24T17:58:47.395Z,100.00
2023-04-24T18:00:53.252Z,100.00
2023-04-24T18:03:01.154Z,100.00
2023-04-24T18:05:05.830Z,100.00
2023-04-24T18:07:08.853Z,100.00
2023-04-24T18:09:12.516Z,100.00
2023-04-24T18:11:15.222Z,100.00
2023-04-24T18:13:18.115Z,100.00
2023-04-24T18:15:21.467Z,100.00
2023-04-24T18:17:24.280Z,100.00
2023-04-24T18:19:27.435Z,100.00
2023-04-24T18:21:31.669Z,100.00
2023-04-24T18:23:36.334Z,100.00
2023-04-24T18:25:39.336Z,100.00
2023-04-24T18:27:43.095Z,100.00
2023-04-24T18:29:46.601Z,100.00
2023-04-24T18:31:51.380Z,100.00
2023-04-24T18:33:56.076Z,100.00
2023-04-24T18:36:02.165Z,100.00
2023-04-24T18:38:05.573Z,100.00
2023-04-24T18:40:10.064Z,100.00
2023-04-24T18:42:13.155Z,100.00
2023-04-24T18:44:16.170Z,100.00
2023-04-24T18:46:18.990Z,100.00
2023-04-24T18:48:21.819Z,100.00
2023-04-24T18:50:27.353Z,100.00
2023-04-24T18:52:30.760Z,100.00
2023-04-24T18:54:34.182Z,100.00
2023-04-24T18:56:36.713Z,100.00
2023-04-24T18:58:44.661Z,100.00
2023-04-24T19:00:47.798Z,100.00
2023-04-24T19:02:50.941Z,100.00
2023-04-24T19:04:54.845Z,100.00
2023-04-24T19:06:57.636Z,100.00
2023-04-24T19:09:01.618Z,100.00
2023-04-24T19:11:05.774Z,100.00
2023-04-24T19:13:10.107Z,100.00
2023-04-24T19:15:19.353Z,100.00
2023-04-24T19:17:25.760Z,100.00
2023-04-24T19:19:30.447Z,100.00
2023-04-24T19:21:34.707Z,100.00
2023-04-24T19:23:40.259Z,100.00
2023-04-24T19:25:43.538Z,100.00
2023-04-24T19:27:48.104Z,100.00
2023-04-24T19:29:52.220Z,100.00
2023-04-24T19:31:56.120Z,100.00
2023-04-24T19:33:58.733Z,100.00
2023-04-24T19:36:03.187Z,100.00
2023-04-24T19:38:06.256Z,100.00
2023-04-24T19:40:09.164Z,100.00
2023-04-24T19:42:12.669Z,100.00
2023-04-24T19:44:17.495Z,100.00
2023-04-24T19:46:20.706Z,100.00
2023-04-24T19:48:23.752Z,100.00
2023-04-24T19:50:27.226Z,100.00
2023-04-24T19:52:30.463Z,100.00
2023-04-24T19:54:33.687Z,100.00
2023-04-24T19:56:36.574Z,100.00
2023-04-24T19:58:39.496Z,100.00
2023-04-24T20:00:42.923Z,100.00
2023-04-24T20:02:45.687Z,100.00
2023-04-24T20:04:48.946Z,100.00
2023-04-24T20:06:52.063Z,100.00
2023-04-24T20:08:55.222Z,100.00
2023-04-24T20:10:58.312Z,100.00
2023-04-24T20:13:01.574Z,100.00
2023-04-24T20:15:05.077Z,100.00
2023-04-24T20:17:07.874Z,100.00
2023-04-24T20:19:10.358Z,100.00
2023-04-24T20:21:14.057Z,100.00
2023-04-24T20:23:16.618Z,100.00
2023-04-24T20:25:19.618Z,100.00
2023-04-24T20:27:22.267Z,100.00
2023-04-24T20:29:24.780Z,100.00
2023-04-24T20:31:27.106Z,100.00
2023-04-24T20:33:30.722Z,100.00
2023-04-24T20:35:33.425Z,100.00
2023-04-24T20:37:36.588Z,100.00
2023-04-24T20:39:39.250Z,100.00
2023-04-24T20:41:41.934Z,100.00
2023-04-24T20:43:44.245Z,100.00
2023-04-24T20:45:47.019Z,100.00
2023-04-24T20:47:50.697Z,100.00
2023-04-24T20:49:54.021Z,100.00
2023-04-24T20:51:59.137Z,100.00
2023-04-24T20:54:01.461Z,100.00
2023-04-24T20:56:03.800Z,100.00
2023-04-24T20:58:06.505Z,100.00
2023-04-24T21:00:10.834Z,100.00
2023-04-24T21:02:13.217Z,100.00
2023-04-24T21:04:16.366Z,100.00
2023-04-24T21:06:18.766Z,100.00
2023-04-24T21:08:21.062Z,100.00
2023-04-24T21:10:25.177Z,100.00
2023-04-24T21:12:27.613Z,100.00
2023-04-24T21:14:29.926Z,100.00
2023-04-24T21:16:33.677Z,100.00
2023-04-24T21:18:41.061Z,100.00
2023-04-24T21:20:43.537Z,100.00
2023-04-24T21:22:46.081Z,100.00
2023-04-24T21:24:48.378Z,100.00
2023-04-24T21:26:50.862Z,100.00
2023-04-24T21:28:54.096Z,100.00
2023-04-24T21:30:56.422Z,100.00
2023-04-24T21:32:58.963Z,100.00
2023-04-24T21:35:01.657Z,100.00
2023-04-24T21:37:03.894Z,100.00
2023-04-24T21:39:06.277Z,100.00
2023-04-24T21:41:08.831Z,100.00
2023-04-24T21:43:12.253Z,100.00
2023-04-24T21:45:14.618Z,100.00
2023-04-24T21:47:17.203Z,100.00
2023-04-24T21:49:19.618Z,100.00
2023-04-24T21:51:21.894Z,100.00
2023-04-24T21:53:24.474Z,100.00
2023-04-24T21:55:27.126Z,100.00
2023-04-24T21:57:29.875Z,100.00
2023-04-24T21:59:34.371Z,100.00
2023-04-24T22:01:36.804Z,100.00
2023-04-24T22:03:39.536Z,100.00
2023-04-24T22:05:42.059Z,100.00
2023-04-24T22:07:47.162Z,100.00
2023-04-24T22:09:51.669Z,100.00
2023-04-24T22:11:54.958Z,100.00
2023-04-24T22:13:57.425Z,100.00
2023-04-24T22:16:00.102Z,100.00
2023-04-24T22:18:04.492Z,100.00
2023-04-24T22:20:08.966Z,100.00
2023-04-24T22:22:11.604Z,100.00
2023-04-24T22:24:14.112Z,100.00
2023-04-24T22:26:16.471Z,100.00
2023-04-24T22:28:19.050Z,100.00
2023-04-24T22:30:21.384Z,100.00
2023-04-24T22:32:23.787Z,100.00
2023-04-24T22:34:27.002Z,100.00
2023-04-24T22:36:29.365Z,100.00
